<?xml version="1.0" encoding="UTF-8" standalone="no" ?>
<gpx xmlns="http://www.topografix.com/GPX/1/1" xmlns:xsi="http://www.w3.org/2001/XMLSchema-instance" xsi:schemaLocation="http://www.topografix.com/GPX/1/1 http://www.topografix.com/GPX/1/1/gpx.xsd" version="1.1" creator="VisuGPX - https://www.visugpx.com">
  <metadata>
    <name>Ippling Hundling</name>
  </metadata>
  <trk>
    <name><![CDATA[Ippling Hundling]]></name>
    <trkseg>
      <trkpt lat="49.11034" lon="7.03791">
        <ele>210</ele>
      </trkpt>
      <trkpt lat="49.10984" lon="7.03622">
        <ele>209</ele>
      </trkpt>
      <trkpt lat="49.11016" lon="7.03414">
        <ele>205</ele>
      </trkpt>
      <trkpt lat="49.1104" lon="7.03369">
        <ele>206.4</ele>
      </trkpt>
      <trkpt lat="49.11073" lon="7.03339">
        <ele>208.4</ele>
      </trkpt>
      <trkpt lat="49.11156" lon="7.03313">
        <ele>213.9</ele>
      </trkpt>
      <trkpt lat="49.11196" lon="7.03285">
        <ele>215</ele>
      </trkpt>
      <trkpt lat="49.11245" lon="7.03228">
        <ele>217.5</ele>
      </trkpt>
      <trkpt lat="49.11286" lon="7.03134">
        <ele>219.5</ele>
      </trkpt>
      <trkpt lat="49.11299" lon="7.03125">
        <ele>220.3</ele>
      </trkpt>
      <trkpt lat="49.11313" lon="7.03123">
        <ele>221.4</ele>
      </trkpt>
      <trkpt lat="49.11335" lon="7.03131">
        <ele>223</ele>
      </trkpt>
      <trkpt lat="49.11355" lon="7.03123">
        <ele>222.6</ele>
      </trkpt>
      <trkpt lat="49.11365" lon="7.03106">
        <ele>222.7</ele>
      </trkpt>
      <trkpt lat="49.11383" lon="7.03012">
        <ele>225.9</ele>
      </trkpt>
      <trkpt lat="49.11363" lon="7.02954">
        <ele>228.6</ele>
      </trkpt>
      <trkpt lat="49.11358" lon="7.02934">
        <ele>229.6</ele>
      </trkpt>
      <trkpt lat="49.11382" lon="7.02857">
        <ele>235.9</ele>
      </trkpt>
      <trkpt lat="49.11558" lon="7.02378">
        <ele>258.4</ele>
      </trkpt>
      <trkpt lat="49.11578" lon="7.02315">
        <ele>260.1</ele>
      </trkpt>
      <trkpt lat="49.11664" lon="7.01928">
        <ele>267.7</ele>
      </trkpt>
      <trkpt lat="49.11679" lon="7.01895">
        <ele>269.7</ele>
      </trkpt>
      <trkpt lat="49.11653" lon="7.01862">
        <ele>266.7</ele>
      </trkpt>
      <trkpt lat="49.11617" lon="7.01835">
        <ele>262.4</ele>
      </trkpt>
      <trkpt lat="49.11571" lon="7.01819">
        <ele>256.4</ele>
      </trkpt>
      <trkpt lat="49.11546" lon="7.0179">
        <ele>253.4</ele>
      </trkpt>
      <trkpt lat="49.11501" lon="7.01771">
        <ele>247.9</ele>
      </trkpt>
      <trkpt lat="49.11462" lon="7.01719">
        <ele>245.2</ele>
      </trkpt>
      <trkpt lat="49.11454" lon="7.01655">
        <ele>247.4</ele>
      </trkpt>
      <trkpt lat="49.11442" lon="7.01618">
        <ele>248.8</ele>
      </trkpt>
      <trkpt lat="49.11441" lon="7.01571">
        <ele>250.7</ele>
      </trkpt>
      <trkpt lat="49.11437" lon="7.01518">
        <ele>248.7</ele>
      </trkpt>
      <trkpt lat="49.11482" lon="7.01256">
        <ele>239.3</ele>
      </trkpt>
      <trkpt lat="49.11492" lon="7.01038">
        <ele>245.5</ele>
      </trkpt>
      <trkpt lat="49.11504" lon="7.00818">
        <ele>248.5</ele>
      </trkpt>
      <trkpt lat="49.11531" lon="7.00628">
        <ele>251.6</ele>
      </trkpt>
      <trkpt lat="49.1151" lon="7.00646">
        <ele>250.5</ele>
      </trkpt>
      <trkpt lat="49.11476" lon="7.00658">
        <ele>249.4</ele>
      </trkpt>
      <trkpt lat="49.1139" lon="7.00667">
        <ele>249.3</ele>
      </trkpt>
      <trkpt lat="49.11292" lon="7.00661">
        <ele>256.5</ele>
      </trkpt>
      <trkpt lat="49.11198" lon="7.00623">
        <ele>257.7</ele>
      </trkpt>
      <trkpt lat="49.11169" lon="7.00595">
        <ele>256.1</ele>
      </trkpt>
      <trkpt lat="49.11136" lon="7.00567">
        <ele>253.4</ele>
      </trkpt>
      <trkpt lat="49.11045" lon="7.00537">
        <ele>245.9</ele>
      </trkpt>
      <trkpt lat="49.10948" lon="7.00535">
        <ele>240</ele>
      </trkpt>
      <trkpt lat="49.10912" lon="7.00543">
        <ele>238.3</ele>
      </trkpt>
      <trkpt lat="49.10864" lon="7.00511">
        <ele>237.4</ele>
      </trkpt>
      <trkpt lat="49.10798" lon="7.00376">
        <ele>233</ele>
      </trkpt>
      <trkpt lat="49.10735" lon="7.00288">
        <ele>231</ele>
      </trkpt>
      <trkpt lat="49.10667" lon="7.00251">
        <ele>229</ele>
      </trkpt>
      <trkpt lat="49.10617" lon="7.00253">
        <ele>225.4</ele>
      </trkpt>
      <trkpt lat="49.10588" lon="7.00341">
        <ele>222.4</ele>
      </trkpt>
      <trkpt lat="49.10534" lon="7.00329">
        <ele>217</ele>
        <time>2021-03-03T07:45:47+01:00</time>
      </trkpt>
      <trkpt lat="49.10391" lon="7.00319">
        <ele>218</ele>
        <time>2021-03-03T07:45:52+01:00</time>
      </trkpt>
      <trkpt lat="49.10387" lon="7.00276">
        <ele>217</ele>
        <time>2021-03-03T07:45:57+01:00</time>
      </trkpt>
      <trkpt lat="49.10339" lon="7.00252">
        <ele>219</ele>
        <time>2021-03-03T07:46:02+01:00</time>
      </trkpt>
      <trkpt lat="49.10255" lon="7.00246">
        <ele>226</ele>
        <time>2021-03-03T07:46:07+01:00</time>
      </trkpt>
      <trkpt lat="49.10221" lon="7.00183">
        <ele>228</ele>
        <time>2021-03-03T07:46:12+01:00</time>
      </trkpt>
      <trkpt lat="49.10047" lon="7.00027">
        <ele>231</ele>
        <time>2021-03-03T07:46:17+01:00</time>
      </trkpt>
      <trkpt lat="49.09874" lon="6.99827">
        <ele>241</ele>
        <time>2021-03-03T07:46:22+01:00</time>
      </trkpt>
      <trkpt lat="49.09901" lon="6.99454">
        <ele>239</ele>
        <time>2021-03-03T07:46:27+01:00</time>
      </trkpt>
      <trkpt lat="49.09953" lon="6.99183">
        <ele>240</ele>
        <time>2021-03-03T07:46:32+01:00</time>
      </trkpt>
      <trkpt lat="49.09862" lon="6.99166">
        <ele>237</ele>
        <time>2021-03-03T07:46:37+01:00</time>
      </trkpt>
      <trkpt lat="49.09835" lon="6.99108">
        <ele>235</ele>
        <time>2021-03-03T07:46:42+01:00</time>
      </trkpt>
      <trkpt lat="49.09882" lon="6.98739">
        <ele>239</ele>
        <time>2021-03-03T07:46:47+01:00</time>
      </trkpt>
      <trkpt lat="49.0996" lon="6.98501">
        <ele>243</ele>
        <time>2021-03-03T07:46:52+01:00</time>
      </trkpt>
      <trkpt lat="49.1002" lon="6.98269">
        <ele>240</ele>
        <time>2021-03-03T07:46:57+01:00</time>
      </trkpt>
      <trkpt lat="49.09922" lon="6.98023">
        <ele>237</ele>
        <time>2021-03-03T07:47:02+01:00</time>
      </trkpt>
      <trkpt lat="49.09916" lon="6.97962">
        <ele>236</ele>
        <time>2021-03-03T07:47:07+01:00</time>
      </trkpt>
      <trkpt lat="49.09929" lon="6.97842">
        <ele>237</ele>
        <time>2021-03-03T07:47:12+01:00</time>
      </trkpt>
      <trkpt lat="49.09979" lon="6.97827">
        <ele>233</ele>
        <time>2021-03-03T07:47:17+01:00</time>
      </trkpt>
      <trkpt lat="49.10071" lon="6.97866">
        <ele>226</ele>
        <time>2021-03-03T07:47:22+01:00</time>
      </trkpt>
      <trkpt lat="49.1018" lon="6.97817">
        <ele>226</ele>
        <time>2021-03-03T07:47:27+01:00</time>
      </trkpt>
      <trkpt lat="49.1026" lon="6.97814">
        <ele>227</ele>
        <time>2021-03-03T07:47:32+01:00</time>
      </trkpt>
      <trkpt lat="49.10418" lon="6.97902">
        <ele>226</ele>
        <time>2021-03-03T07:47:37+01:00</time>
      </trkpt>
      <trkpt lat="49.10553" lon="6.98059">
        <ele>223</ele>
        <time>2021-03-03T07:47:42+01:00</time>
      </trkpt>
      <trkpt lat="49.10714" lon="6.98083">
        <ele>228</ele>
        <time>2021-03-03T07:47:47+01:00</time>
      </trkpt>
      <trkpt lat="49.10797" lon="6.98252">
        <ele>230</ele>
        <time>2021-03-03T07:47:52+01:00</time>
      </trkpt>
      <trkpt lat="49.10825" lon="6.98334">
        <ele>233</ele>
        <time>2021-03-03T07:47:57+01:00</time>
      </trkpt>
      <trkpt lat="49.10777" lon="6.98381">
        <ele>236</ele>
        <time>2021-03-03T07:48:02+01:00</time>
      </trkpt>
      <trkpt lat="49.10932" lon="6.98638">
        <ele>253</ele>
        <time>2021-03-03T07:48:07+01:00</time>
      </trkpt>
      <trkpt lat="49.1122" lon="6.98947">
        <ele>268</ele>
        <time>2021-03-03T07:48:12+01:00</time>
      </trkpt>
      <trkpt lat="49.1164" lon="6.99269">
        <ele>277</ele>
        <time>2021-03-03T07:48:17+01:00</time>
      </trkpt>
      <trkpt lat="49.11642" lon="6.99353">
        <ele>276</ele>
        <time>2021-03-03T07:48:22+01:00</time>
      </trkpt>
      <trkpt lat="49.12121" lon="6.99609">
        <ele>307</ele>
        <time>2021-03-03T07:48:27+01:00</time>
      </trkpt>
      <trkpt lat="49.11991" lon="7.00432">
        <ele>289</ele>
        <time>2021-03-03T07:48:32+01:00</time>
      </trkpt>
      <trkpt lat="49.12089" lon="7.00861">
        <ele>288</ele>
        <time>2021-03-03T07:48:37+01:00</time>
      </trkpt>
      <trkpt lat="49.12006" lon="7.01155">
        <ele>280</ele>
        <time>2021-03-03T07:48:42+01:00</time>
      </trkpt>
      <trkpt lat="49.12202" lon="7.01417">
        <ele>263</ele>
        <time>2021-03-03T07:48:47+01:00</time>
      </trkpt>
      <trkpt lat="49.12067" lon="7.01645">
        <ele>262</ele>
        <time>2021-03-03T07:48:52+01:00</time>
      </trkpt>
      <trkpt lat="49.11991" lon="7.01853">
        <ele>262</ele>
        <time>2021-03-03T07:48:57+01:00</time>
      </trkpt>
      <trkpt lat="49.11922" lon="7.01907">
        <ele>266</ele>
        <time>2021-03-03T07:49:02+01:00</time>
      </trkpt>
      <trkpt lat="49.11879" lon="7.01992">
        <ele>266</ele>
        <time>2021-03-03T07:49:07+01:00</time>
      </trkpt>
      <trkpt lat="49.11897" lon="7.02147">
        <ele>258</ele>
        <time>2021-03-03T07:49:12+01:00</time>
      </trkpt>
      <trkpt lat="49.11871" lon="7.02317">
        <ele>246</ele>
        <time>2021-03-03T07:49:17+01:00</time>
      </trkpt>
      <trkpt lat="49.11805" lon="7.02394">
        <ele>246</ele>
        <time>2021-03-03T07:49:22+01:00</time>
      </trkpt>
      <trkpt lat="49.1177" lon="7.02378">
        <ele>251</ele>
        <time>2021-03-03T07:49:27+01:00</time>
      </trkpt>
      <trkpt lat="49.11649" lon="7.02529">
        <ele>252</ele>
        <time>2021-03-03T07:49:32+01:00</time>
      </trkpt>
      <trkpt lat="49.11633" lon="7.02565">
        <ele>249</ele>
        <time>2021-03-03T07:49:37+01:00</time>
      </trkpt>
      <trkpt lat="49.11607" lon="7.02703">
        <ele>242</ele>
        <time>2021-03-03T07:49:42+01:00</time>
      </trkpt>
      <trkpt lat="49.11596" lon="7.02753">
        <ele>240</ele>
        <time>2021-03-03T07:49:47+01:00</time>
      </trkpt>
      <trkpt lat="49.11571" lon="7.02763">
        <ele>241</ele>
        <time>2021-03-03T07:49:52+01:00</time>
      </trkpt>
      <trkpt lat="49.11554" lon="7.02781">
        <ele>241</ele>
        <time>2021-03-03T07:49:57+01:00</time>
      </trkpt>
      <trkpt lat="49.11437" lon="7.02843">
        <ele>241.4</ele>
      </trkpt>
      <trkpt lat="49.11381" lon="7.02858">
        <ele>235.8</ele>
      </trkpt>
      <trkpt lat="49.11359" lon="7.02931">
        <ele>229.8</ele>
      </trkpt>
      <trkpt lat="49.11362" lon="7.02951">
        <ele>228.7</ele>
      </trkpt>
      <trkpt lat="49.11383" lon="7.03012">
        <ele>225.9</ele>
      </trkpt>
      <trkpt lat="49.11371" lon="7.03076">
        <ele>223</ele>
        <time>2021-03-03T07:50:17+01:00</time>
      </trkpt>
      <trkpt lat="49.11364" lon="7.03105">
        <ele>222.7</ele>
      </trkpt>
      <trkpt lat="49.11353" lon="7.03124">
        <ele>222.7</ele>
      </trkpt>
      <trkpt lat="49.11335" lon="7.03131">
        <ele>223</ele>
      </trkpt>
      <trkpt lat="49.11312" lon="7.03125">
        <ele>221.3</ele>
      </trkpt>
      <trkpt lat="49.11298" lon="7.03124">
        <ele>220.3</ele>
      </trkpt>
      <trkpt lat="49.11285" lon="7.03134">
        <ele>219.4</ele>
      </trkpt>
      <trkpt lat="49.11249" lon="7.03222">
        <ele>218</ele>
        <time>2021-03-03T07:50:32+01:00</time>
      </trkpt>
      <trkpt lat="49.112" lon="7.03281">
        <ele>215</ele>
      </trkpt>
      <trkpt lat="49.11156" lon="7.03312">
        <ele>213.8</ele>
      </trkpt>
      <trkpt lat="49.11073" lon="7.03337">
        <ele>208.4</ele>
      </trkpt>
      <trkpt lat="49.11039" lon="7.03371">
        <ele>206.4</ele>
      </trkpt>
      <trkpt lat="49.11018" lon="7.03416">
        <ele>205.1</ele>
      </trkpt>
      <trkpt lat="49.10985" lon="7.03619">
        <ele>208.9</ele>
      </trkpt>
      <trkpt lat="49.11035" lon="7.03792">
        <ele>209.9</ele>
      </trkpt>
    </trkseg>
  </trk>
</gpx>